sensor_id;sensor_type;location;lat;lon;timestamp;P1;durP1;ratioP1;P2;durP2;ratioP2
27357;SDS011;14831;50.474;7.616;2022-10-16T00:01:53;0.8;;;0.6;;
27357;SDS011;14831;50.474;7.616;2022-10-16T00:06:53;0.8;;;0.6;;
27357;SDS011;14831;50.474;7.616;2022-10-16T00:11:53;0.8;;;0.6;;
27357;SDS011;14831;50.474;7.616;2022-10-16T00:16:53;0.8;;;0.6;;
27357;SDS011;14831;50.474;7.616;2022-10-16T00:21:53;0.8;;;0.6;;
27357;SDS011;14831;50.474;7.616;2022-10-16T00:26:53;0.8;;;0.6;;
27357;SDS011;14831;50.474;7.616;2022-10-16T00:31:53;0.8;;;0.6;;
27357;SDS011;14831;50.474;7.616;2022-10-16T00:36:53;0.8;;;0.6;;
27357;SDS011;14831;50.474;7.616;2022-10-16T00:41:53;0.8;;;0.6;;
27357;SDS011;14831;50.474;7.616;2022-10-16T00:46:53;0.8;;;0.6;;
27357;SDS011;14831;50.474;7.616;2022-10-16T00:51:53;0.5;;;0.5;;
27357;SDS011;14831;50.474;7.616;2022-10-16T00:56:54;0.5;;;0.5;;
27357;SDS011;14831;50.474;7.616;2022-10-16T01:01:54;0.5;;;0.5;;
27357;SDS011;14831;50.474;7.616;2022-10-16T01:06:59;0.5;;;0.5;;
27357;SDS011;14831;50.474;7.616;2022-10-16T01:11:58;0.5;;;0.5;;
27357;SDS011;14831;50.474;7.616;2022-10-16T01:16:58;0.5;;;0.5;;
27357;SDS011;14831;50.474;7.616;2022-10-16T01:21:54;0.4;;;0.4;;
27357;SDS011;14831;50.474;7.616;2022-10-16T01:27:11;0.4;;;0.4;;
27357;SDS011;14831;50.474;7.616;2022-10-16T01:31:57;0.4;;;0.4;;
27357;SDS011;14831;50.474;7.616;2022-10-16T01:36:56;0.4;;;0.4;;
27357;SDS011;14831;50.474;7.616;2022-10-16T01:42:00;0.4;;;0.4;;
27357;SDS011;14831;50.474;7.616;2022-10-16T01:46:54;0.4;;;0.4;;
27357;SDS011;14831;50.474;7.616;2022-10-16T01:51:56;0.5;;;0.5;;
27357;SDS011;14831;50.474;7.616;2022-10-16T01:56:54;0.5;;;0.5;;
27357;SDS011;14831;50.474;7.616;2022-10-16T02:01:56;0.5;;;0.5;;
27357;SDS011;14831;50.474;7.616;2022-10-16T02:06:53;0.5;;;0.5;;
27357;SDS011;14831;50.474;7.616;2022-10-16T02:11:55;0.5;;;0.5;;
27357;SDS011;14831;50.474;7.616;2022-10-16T02:16:53;0.5;;;0.5;;
27357;SDS011;14831;50.474;7.616;2022-10-16T02:21:54;0.8;;;0.5;;
27357;SDS011;14831;50.474;7.616;2022-10-16T02:26:59;0.8;;;0.5;;
27357;SDS011;14831;50.474;7.616;2022-10-16T02:31:56;0.8;;;0.5;;
27357;SDS011;14831;50.474;7.616;2022-10-16T02:36:54;0.8;;;0.5;;
27357;SDS011;14831;50.474;7.616;2022-10-16T02:41:53;0.8;;;0.5;;
27357;SDS011;14831;50.474;7.616;2022-10-16T02:46:53;0.8;;;0.5;;
27357;SDS011;14831;50.474;7.616;2022-10-16T02:51:53;0.4;;;0.4;;
27357;SDS011;14831;50.474;7.616;2022-10-16T02:56:53;0.4;;;0.4;;
27357;SDS011;14831;50.474;7.616;2022-10-16T03:01:53;0.4;;;0.4;;
27357;SDS011;14831;50.474;7.616;2022-10-16T03:06:53;0.4;;;0.4;;
27357;SDS011;14831;50.474;7.616;2022-10-16T03:11:53;0.4;;;0.4;;
27357;SDS011;14831;50.474;7.616;2022-10-16T03:16:53;0.4;;;0.4;;
27357;SDS011;14831;50.474;7.616;2022-10-16T03:21:53;0.5;;;0.5;;
27357;SDS011;14831;50.474;7.616;2022-10-16T03:26:53;0.5;;;0.5;;
27357;SDS011;14831;50.474;7.616;2022-10-16T03:31:53;0.5;;;0.5;;
27357;SDS011;14831;50.474;7.616;2022-10-16T03:36:53;0.5;;;0.5;;
27357;SDS011;14831;50.474;7.616;2022-10-16T03:41:53;0.5;;;0.5;;
27357;SDS011;14831;50.474;7.616;2022-10-16T03:46:53;0.5;;;0.5;;
27357;SDS011;14831;50.474;7.616;2022-10-16T03:51:53;0.7;;;0.4;;
27357;SDS011;14831;50.474;7.616;2022-10-16T03:56:53;0.7;;;0.4;;
27357;SDS011;14831;50.474;7.616;2022-10-16T04:01:53;0.7;;;0.4;;
27357;SDS011;14831;50.474;7.616;2022-10-16T04:06:53;0.7;;;0.4;;
27357;SDS011;14831;50.474;7.616;2022-10-16T04:11:53;0.7;;;0.4;;
27357;SDS011;14831;50.474;7.616;2022-10-16T04:16:53;0.7;;;0.4;;
27357;SDS011;14831;50.474;7.616;2022-10-16T04:21:53;0.4;;;0.4;;
27357;SDS011;14831;50.474;7.616;2022-10-16T04:26:53;0.4;;;0.4;;
27357;SDS011;14831;50.474;7.616;2022-10-16T04:31:53;0.4;;;0.4;;
27357;SDS011;14831;50.474;7.616;2022-10-16T04:36:53;0.4;;;0.4;;
27357;SDS011;14831;50.474;7.616;2022-10-16T04:41:53;0.4;;;0.4;;
27357;SDS011;14831;50.474;7.616;2022-10-16T04:46:53;0.4;;;0.4;;
27357;SDS011;14831;50.474;7.616;2022-10-16T04:51:53;1.0;;;0.5;;
27357;SDS011;14831;50.474;7.616;2022-10-16T04:56:53;1.0;;;0.5;;
27357;SDS011;14831;50.474;7.616;2022-10-16T05:01:53;1.0;;;0.5;;
27357;SDS011;14831;50.474;7.616;2022-10-16T05:06:53;1.0;;;0.5;;
27357;SDS011;14831;50.474;7.616;2022-10-16T05:11:53;1.0;;;0.5;;
27357;SDS011;14831;50.474;7.616;2022-10-16T05:16:53;1.0;;;0.5;;
27357;SDS011;14831;50.474;7.616;2022-10-16T05:21:53;0.6;;;0.5;;
27357;SDS011;14831;50.474;7.616;2022-10-16T05:26:53;0.6;;;0.5;;
27357;SDS011;14831;50.474;7.616;2022-10-16T05:31:53;0.6;;;0.5;;
27357;SDS011;14831;50.474;7.616;2022-10-16T05:36:53;0.6;;;0.5;;
27357;SDS011;14831;50.474;7.616;2022-10-16T05:41:53;0.6;;;0.5;;
27357;SDS011;14831;50.474;7.616;2022-10-16T05:46:53;0.6;;;0.5;;
27357;SDS011;14831;50.474;7.616;2022-10-16T05:51:53;0.3;;;0.3;;
27357;SDS011;14831;50.474;7.616;2022-10-16T05:56:53;0.3;;;0.3;;
27357;SDS011;14831;50.474;7.616;2022-10-16T06:01:53;0.3;;;0.3;;
27357;SDS011;14831;50.474;7.616;2022-10-16T06:06:53;0.3;;;0.3;;
27357;SDS011;14831;50.474;7.616;2022-10-16T06:11:53;0.3;;;0.3;;
27357;SDS011;14831;50.474;7.616;2022-10-16T06:16:53;0.3;;;0.3;;
27357;SDS011;14831;50.474;7.616;2022-10-16T06:21:53;0.3;;;0.3;;
27357;SDS011;14831;50.474;7.616;2022-10-16T06:26:53;0.3;;;0.3;;
27357;SDS011;14831;50.474;7.616;2022-10-16T06:31:53;0.3;;;0.3;;
27357;SDS011;14831;50.474;7.616;2022-10-16T06:36:53;0.3;;;0.3;;
27357;SDS011;14831;50.474;7.616;2022-10-16T06:41:53;0.3;;;0.3;;
27357;SDS011;14831;50.474;7.616;2022-10-16T06:46:53;0.3;;;0.3;;
27357;SDS011;14831;50.474;7.616;2022-10-16T06:51:53;0.3;;;0.3;;
27357;SDS011;14831;50.474;7.616;2022-10-16T06:56:53;0.3;;;0.3;;
27357;SDS011;14831;50.474;7.616;2022-10-16T07:01:53;0.3;;;0.3;;
27357;SDS011;14831;50.474;7.616;2022-10-16T07:06:53;0.3;;;0.3;;
27357;SDS011;14831;50.474;7.616;2022-10-16T07:11:53;0.3;;;0.3;;
27357;SDS011;14831;50.474;7.616;2022-10-16T07:16:53;0.3;;;0.3;;
27357;SDS011;14831;50.474;7.616;2022-10-16T07:21:53;0.4;;;0.4;;
27357;SDS011;14831;50.474;7.616;2022-10-16T07:26:53;0.4;;;0.4;;
27357;SDS011;14831;50.474;7.616;2022-10-16T07:31:53;0.4;;;0.4;;
27357;SDS011;14831;50.474;7.616;2022-10-16T07:36:53;0.4;;;0.4;;
27357;SDS011;14831;50.474;7.616;2022-10-16T07:41:53;0.4;;;0.4;;
27357;SDS011;14831;50.474;7.616;2022-10-16T07:46:53;0.4;;;0.4;;
27357;SDS011;14831;50.474;7.616;2022-10-16T07:51:53;0.4;;;0.4;;
27357;SDS011;14831;50.474;7.616;2022-10-16T07:56:53;0.4;;;0.4;;
27357;SDS011;14831;50.474;7.616;2022-10-16T08:01:53;0.4;;;0.4;;
27357;SDS011;14831;50.474;7.616;2022-10-16T08:06:53;0.4;;;0.4;;
27357;SDS011;14831;50.474;7.616;2022-10-16T08:11:53;0.4;;;0.4;;
27357;SDS011;14831;50.474;7.616;2022-10-16T08:16:53;0.4;;;0.4;;
27357;SDS011;14831;50.474;7.616;2022-10-16T08:21:53;1.8;;;0.4;;
27357;SDS011;14831;50.474;7.616;2022-10-16T08:26:53;1.8;;;0.4;;
27357;SDS011;14831;50.474;7.616;2022-10-16T08:31:53;1.8;;;0.4;;
27357;SDS011;14831;50.474;7.616;2022-10-16T08:36:53;1.8;;;0.4;;
27357;SDS011;14831;50.474;7.616;2022-10-16T08:42:19;1.8;;;0.4;;
27357;SDS011;14831;50.474;7.616;2022-10-16T08:46:56;1.8;;;0.4;;
27357;SDS011;14831;50.474;7.616;2022-10-16T08:51:55;0.7;;;0.4;;
27357;SDS011;14831;50.474;7.616;2022-10-16T08:56:54;0.7;;;0.4;;
27357;SDS011;14831;50.474;7.616;2022-10-16T09:01:53;0.7;;;0.4;;
27357;SDS011;14831;50.474;7.616;2022-10-16T09:06:56;0.7;;;0.4;;
27357;SDS011;14831;50.474;7.616;2022-10-16T09:11:59;0.7;;;0.4;;
27357;SDS011;14831;50.474;7.616;2022-10-16T09:16:57;0.7;;;0.4;;
27357;SDS011;14831;50.474;7.616;2022-10-16T09:21:54;1.9;;;0.5;;
27357;SDS011;14831;50.474;7.616;2022-10-16T09:26:53;1.9;;;0.5;;
27357;SDS011;14831;50.474;7.616;2022-10-16T09:31:54;1.9;;;0.5;;
27357;SDS011;14831;50.474;7.616;2022-10-16T09:36:53;1.9;;;0.5;;
27357;SDS011;14831;50.474;7.616;2022-10-16T09:41:55;1.9;;;0.5;;
27357;SDS011;14831;50.474;7.616;2022-10-16T09:47:01;1.9;;;0.5;;
27357;SDS011;14831;50.474;7.616;2022-10-16T09:52:03;0.5;;;0.4;;
27357;SDS011;14831;50.474;7.616;2022-10-16T09:57:04;0.5;;;0.4;;
27357;SDS011;14831;50.474;7.616;2022-10-16T10:01:54;0.5;;;0.4;;
27357;SDS011;14831;50.474;7.616;2022-10-16T10:06:55;0.5;;;0.4;;
27357;SDS011;14831;50.474;7.616;2022-10-16T10:11:55;0.5;;;0.4;;
27357;SDS011;14831;50.474;7.616;2022-10-16T10:17:08;0.5;;;0.4;;
27357;SDS011;14831;50.474;7.616;2022-10-16T10:21:53;0.8;;;0.6;;
27357;SDS011;14831;50.474;7.616;2022-10-16T10:26:58;0.8;;;0.6;;
27357;SDS011;14831;50.474;7.616;2022-10-16T10:32:00;0.8;;;0.6;;
27357;SDS011;14831;50.474;7.616;2022-10-16T10:36:57;0.8;;;0.6;;
27357;SDS011;14831;50.474;7.616;2022-10-16T10:42:04;0.8;;;0.6;;
27357;SDS011;14831;50.474;7.616;2022-10-16T10:46:57;0.8;;;0.6;;
27357;SDS011;14831;50.474;7.616;2022-10-16T10:52:02;2.5;;;0.8;;
27357;SDS011;14831;50.474;7.616;2022-10-16T10:56:58;2.5;;;0.8;;
27357;SDS011;14831;50.474;7.616;2022-10-16T11:01:56;2.5;;;0.8;;
27357;SDS011;14831;50.474;7.616;2022-10-16T11:06:57;2.5;;;0.8;;
27357;SDS011;14831;50.474;7.616;2022-10-16T11:11:58;2.5;;;0.8;;
27357;SDS011;14831;50.474;7.616;2022-10-16T11:16:57;2.5;;;0.8;;
27357;SDS011;14831;50.474;7.616;2022-10-16T11:21:59;1.1;;;0.7;;
27357;SDS011;14831;50.474;7.616;2022-10-16T11:26:54;1.1;;;0.7;;
27357;SDS011;14831;50.474;7.616;2022-10-16T11:31:58;1.1;;;0.7;;
27357;SDS011;14831;50.474;7.616;2022-10-16T11:36:56;1.1;;;0.7;;
27357;SDS011;14831;50.474;7.616;2022-10-16T11:41:55;1.1;;;0.7;;
27357;SDS011;14831;50.474;7.616;2022-10-16T11:47:01;1.1;;;0.7;;
27357;SDS011;14831;50.474;7.616;2022-10-16T11:52:00;1.1;;;0.9;;
27357;SDS011;14831;50.474;7.616;2022-10-16T11:56:58;1.1;;;0.9;;
27357;SDS011;14831;50.474;7.616;2022-10-16T12:01:58;1.1;;;0.9;;
27357;SDS011;14831;50.474;7.616;2022-10-16T12:06:58;1.1;;;0.9;;
27357;SDS011;14831;50.474;7.616;2022-10-16T12:11:54;1.1;;;0.9;;
27357;SDS011;14831;50.474;7.616;2022-10-16T12:16:55;1.1;;;0.9;;
27357;SDS011;14831;50.474;7.616;2022-10-16T12:21:56;9.5;;;4.8;;
27357;SDS011;14831;50.474;7.616;2022-10-16T12:26:53;9.5;;;4.8;;
27357;SDS011;14831;50.474;7.616;2022-10-16T12:31:53;9.5;;;4.8;;
27357;SDS011;14831;50.474;7.616;2022-10-16T12:36:54;9.5;;;4.8;;
27357;SDS011;14831;50.474;7.616;2022-10-16T12:42:02;9.5;;;4.8;;
27357;SDS011;14831;50.474;7.616;2022-10-16T12:46:53;9.5;;;4.8;;
27357;SDS011;14831;50.474;7.616;2022-10-16T12:51:53;6.3;;;2.6;;
27357;SDS011;14831;50.474;7.616;2022-10-16T12:57:04;6.3;;;2.6;;
27357;SDS011;14831;50.474;7.616;2022-10-16T13:02:09;6.3;;;2.6;;
27357;SDS011;14831;50.474;7.616;2022-10-16T13:06:56;6.3;;;2.6;;
27357;SDS011;14831;50.474;7.616;2022-10-16T13:12:05;6.3;;;2.6;;
27357;SDS011;14831;50.474;7.616;2022-10-16T13:17:01;6.3;;;2.6;;
27357;SDS011;14831;50.474;7.616;2022-10-16T13:22:01;8.5;;;4.0;;
27357;SDS011;14831;50.474;7.616;2022-10-16T13:26:59;8.5;;;4.0;;
27357;SDS011;14831;50.474;7.616;2022-10-16T13:31:53;8.5;;;4.0;;
27357;SDS011;14831;50.474;7.616;2022-10-16T13:36:53;8.5;;;4.0;;
27357;SDS011;14831;50.474;7.616;2022-10-16T13:42:03;8.5;;;4.0;;
27357;SDS011;14831;50.474;7.616;2022-10-16T13:46:58;8.5;;;4.0;;
27357;SDS011;14831;50.474;7.616;2022-10-16T13:51:54;5.1;;;2.7;;
27357;SDS011;14831;50.474;7.616;2022-10-16T13:56:53;5.1;;;2.7;;
27357;SDS011;14831;50.474;7.616;2022-10-16T14:01:55;5.1;;;2.7;;
27357;SDS011;14831;50.474;7.616;2022-10-16T14:06:53;5.1;;;2.7;;
27357;SDS011;14831;50.474;7.616;2022-10-16T14:11:55;5.1;;;2.7;;
27357;SDS011;14831;50.474;7.616;2022-10-16T14:16:53;5.1;;;2.7;;
27357;SDS011;14831;50.474;7.616;2022-10-16T14:21:53;6.8;;;3.2;;
27357;SDS011;14831;50.474;7.616;2022-10-16T14:26:53;6.8;;;3.2;;
27357;SDS011;14831;50.474;7.616;2022-10-16T14:31:55;6.8;;;3.2;;
27357;SDS011;14831;50.474;7.616;2022-10-16T14:36:54;6.8;;;3.2;;
27357;SDS011;14831;50.474;7.616;2022-10-16T14:41:56;6.8;;;3.2;;
27357;SDS011;14831;50.474;7.616;2022-10-16T14:46:53;6.8;;;3.2;;
27357;SDS011;14831;50.474;7.616;2022-10-16T14:51:53;6.4;;;3.4;;
27357;SDS011;14831;50.474;7.616;2022-10-16T14:56:55;6.4;;;3.4;;
27357;SDS011;14831;50.474;7.616;2022-10-16T15:01:53;6.4;;;3.4;;
27357;SDS011;14831;50.474;7.616;2022-10-16T15:06:53;6.4;;;3.4;;
27357;SDS011;14831;50.474;7.616;2022-10-16T15:11:53;6.4;;;3.4;;
27357;SDS011;14831;50.474;7.616;2022-10-16T15:16:53;6.4;;;3.4;;
27357;SDS011;14831;50.474;7.616;2022-10-16T15:21:53;5.0;;;2.8;;
27357;SDS011;14831;50.474;7.616;2022-10-16T15:26:53;5.0;;;2.8;;
27357;SDS011;14831;50.474;7.616;2022-10-16T15:31:53;5.0;;;2.8;;
27357;SDS011;14831;50.474;7.616;2022-10-16T15:36:53;5.0;;;2.8;;
27357;SDS011;14831;50.474;7.616;2022-10-16T15:41:53;5.0;;;2.8;;
27357;SDS011;14831;50.474;7.616;2022-10-16T15:46:54;5.0;;;2.8;;
27357;SDS011;14831;50.474;7.616;2022-10-16T15:51:53;4.0;;;2.6;;
27357;SDS011;14831;50.474;7.616;2022-10-16T15:56:53;4.0;;;2.6;;
27357;SDS011;14831;50.474;7.616;2022-10-16T16:01:53;4.0;;;2.6;;
27357;SDS011;14831;50.474;7.616;2022-10-16T16:06:53;4.0;;;2.6;;
27357;SDS011;14831;50.474;7.616;2022-10-16T16:11:53;4.0;;;2.6;;
27357;SDS011;14831;50.474;7.616;2022-10-16T16:16:53;4.0;;;2.6;;
27357;SDS011;14831;50.474;7.616;2022-10-16T16:21:53;3.7;;;2.6;;
27357;SDS011;14831;50.474;7.616;2022-10-16T16:26:53;3.7;;;2.6;;
27357;SDS011;14831;50.474;7.616;2022-10-16T16:31:53;3.7;;;2.6;;
27357;SDS011;14831;50.474;7.616;2022-10-16T16:36:53;3.7;;;2.6;;
27357;SDS011;14831;50.474;7.616;2022-10-16T16:41:55;3.7;;;2.6;;
27357;SDS011;14831;50.474;7.616;2022-10-16T16:46:53;3.7;;;2.6;;
27357;SDS011;14831;50.474;7.616;2022-10-16T16:51:53;3.0;;;2.1;;
27357;SDS011;14831;50.474;7.616;2022-10-16T16:56:53;3.0;;;2.1;;
27357;SDS011;14831;50.474;7.616;2022-10-16T17:01:53;3.0;;;2.1;;
27357;SDS011;14831;50.474;7.616;2022-10-16T17:06:53;3.0;;;2.1;;
27357;SDS011;14831;50.474;7.616;2022-10-16T17:11:53;3.0;;;2.1;;
27357;SDS011;14831;50.474;7.616;2022-10-16T17:16:53;3.0;;;2.1;;
27357;SDS011;14831;50.474;7.616;2022-10-16T17:21:53;3.2;;;2.1;;
27357;SDS011;14831;50.474;7.616;2022-10-16T17:26:53;3.2;;;2.1;;
27357;SDS011;14831;50.474;7.616;2022-10-16T17:31:55;3.2;;;2.1;;
27357;SDS011;14831;50.474;7.616;2022-10-16T17:36:53;3.2;;;2.1;;
27357;SDS011;14831;50.474;7.616;2022-10-16T17:41:53;3.2;;;2.1;;
27357;SDS011;14831;50.474;7.616;2022-10-16T17:46:53;3.2;;;2.1;;
27357;SDS011;14831;50.474;7.616;2022-10-16T17:51:53;2.2;;;1.8;;
27357;SDS011;14831;50.474;7.616;2022-10-16T17:56:53;2.2;;;1.8;;
27357;SDS011;14831;50.474;7.616;2022-10-16T18:01:53;2.2;;;1.8;;
27357;SDS011;14831;50.474;7.616;2022-10-16T18:06:53;2.2;;;1.8;;
27357;SDS011;14831;50.474;7.616;2022-10-16T18:11:53;2.2;;;1.8;;
27357;SDS011;14831;50.474;7.616;2022-10-16T18:16:53;2.2;;;1.8;;
27357;SDS011;14831;50.474;7.616;2022-10-16T18:21:53;3.0;;;1.9;;
27357;SDS011;14831;50.474;7.616;2022-10-16T18:26:54;3.0;;;1.9;;
27357;SDS011;14831;50.474;7.616;2022-10-16T18:31:53;3.0;;;1.9;;
27357;SDS011;14831;50.474;7.616;2022-10-16T18:36:53;3.0;;;1.9;;
27357;SDS011;14831;50.474;7.616;2022-10-16T18:41:53;3.0;;;1.9;;
27357;SDS011;14831;50.474;7.616;2022-10-16T18:46:53;3.0;;;1.9;;
27357;SDS011;14831;50.474;7.616;2022-10-16T18:51:53;2.3;;;1.8;;
27357;SDS011;14831;50.474;7.616;2022-10-16T18:56:53;2.3;;;1.8;;
27357;SDS011;14831;50.474;7.616;2022-10-16T19:01:53;2.3;;;1.8;;
27357;SDS011;14831;50.474;7.616;2022-10-16T19:06:53;2.3;;;1.8;;
27357;SDS011;14831;50.474;7.616;2022-10-16T19:11:53;2.3;;;1.8;;
27357;SDS011;14831;50.474;7.616;2022-10-16T19:16:53;2.3;;;1.8;;
27357;SDS011;14831;50.474;7.616;2022-10-16T19:21:53;1.8;;;1.5;;
27357;SDS011;14831;50.474;7.616;2022-10-16T19:26:53;1.8;;;1.5;;
27357;SDS011;14831;50.474;7.616;2022-10-16T19:31:53;1.8;;;1.5;;
27357;SDS011;14831;50.474;7.616;2022-10-16T19:36:53;1.8;;;1.5;;
27357;SDS011;14831;50.474;7.616;2022-10-16T19:41:53;1.8;;;1.5;;
27357;SDS011;14831;50.474;7.616;2022-10-16T19:46:53;1.8;;;1.5;;
27357;SDS011;14831;50.474;7.616;2022-10-16T19:51:53;2.2;;;1.6;;
27357;SDS011;14831;50.474;7.616;2022-10-16T19:56:53;2.2;;;1.6;;
27357;SDS011;14831;50.474;7.616;2022-10-16T20:01:53;2.2;;;1.6;;
27357;SDS011;14831;50.474;7.616;2022-10-16T20:06:53;2.2;;;1.6;;
27357;SDS011;14831;50.474;7.616;2022-10-16T20:11:53;2.2;;;1.6;;
27357;SDS011;14831;50.474;7.616;2022-10-16T20:16:53;2.2;;;1.6;;
27357;SDS011;14831;50.474;7.616;2022-10-16T20:21:53;1.6;;;1.5;;
27357;SDS011;14831;50.474;7.616;2022-10-16T20:26:53;1.6;;;1.5;;
27357;SDS011;14831;50.474;7.616;2022-10-16T20:31:53;1.6;;;1.5;;
27357;SDS011;14831;50.474;7.616;2022-10-16T20:36:53;1.6;;;1.5;;
27357;SDS011;14831;50.474;7.616;2022-10-16T20:41:53;1.6;;;1.5;;
27357;SDS011;14831;50.474;7.616;2022-10-16T20:46:53;1.6;;;1.5;;
27357;SDS011;14831;50.474;7.616;2022-10-16T20:51:53;2.1;;;1.5;;
27357;SDS011;14831;50.474;7.616;2022-10-16T20:56:53;2.1;;;1.5;;
27357;SDS011;14831;50.474;7.616;2022-10-16T21:01:53;2.1;;;1.5;;
27357;SDS011;14831;50.474;7.616;2022-10-16T21:06:53;2.1;;;1.5;;
27357;SDS011;14831;50.474;7.616;2022-10-16T21:11:53;2.1;;;1.5;;
27357;SDS011;14831;50.474;7.616;2022-10-16T21:16:53;2.1;;;1.5;;
27357;SDS011;14831;50.474;7.616;2022-10-16T21:21:53;1.8;;;1.4;;
27357;SDS011;14831;50.474;7.616;2022-10-16T21:26:53;1.8;;;1.4;;
27357;SDS011;14831;50.474;7.616;2022-10-16T21:31:53;1.8;;;1.4;;
27357;SDS011;14831;50.474;7.616;2022-10-16T21:36:53;1.8;;;1.4;;
27357;SDS011;14831;50.474;7.616;2022-10-16T21:41:53;1.8;;;1.4;;
27357;SDS011;14831;50.474;7.616;2022-10-16T21:46:53;1.8;;;1.4;;
27357;SDS011;14831;50.474;7.616;2022-10-16T21:51:53;1.4;;;1.3;;
27357;SDS011;14831;50.474;7.616;2022-10-16T21:56:53;1.4;;;1.3;;
27357;SDS011;14831;50.474;7.616;2022-10-16T22:01:53;1.4;;;1.3;;
27357;SDS011;14831;50.474;7.616;2022-10-16T22:06:53;1.4;;;1.3;;
27357;SDS011;14831;50.474;7.616;2022-10-16T22:11:53;1.4;;;1.3;;
27357;SDS011;14831;50.474;7.616;2022-10-16T22:16:53;1.4;;;1.3;;
27357;SDS011;14831;50.474;7.616;2022-10-16T22:21:53;1.4;;;1.3;;
27357;SDS011;14831;50.474;7.616;2022-10-16T22:26:53;1.4;;;1.3;;
27357;SDS011;14831;50.474;7.616;2022-10-16T22:31:53;1.4;;;1.3;;
27357;SDS011;14831;50.474;7.616;2022-10-16T22:36:53;1.4;;;1.3;;
27357;SDS011;14831;50.474;7.616;2022-10-16T22:41:53;1.4;;;1.3;;
27357;SDS011;14831;50.474;7.616;2022-10-16T22:46:53;1.4;;;1.3;;
27357;SDS011;14831;50.474;7.616;2022-10-16T22:51:53;1.6;;;1.3;;
27357;SDS011;14831;50.474;7.616;2022-10-16T22:56:53;1.6;;;1.3;;
27357;SDS011;14831;50.474;7.616;2022-10-16T23:01:53;1.6;;;1.3;;
27357;SDS011;14831;50.474;7.616;2022-10-16T23:06:53;1.6;;;1.3;;
27357;SDS011;14831;50.474;7.616;2022-10-16T23:11:53;1.6;;;1.3;;
27357;SDS011;14831;50.474;7.616;2022-10-16T23:16:53;1.6;;;1.3;;
27357;SDS011;14831;50.474;7.616;2022-10-16T23:21:53;1.4;;;1.3;;
27357;SDS011;14831;50.474;7.616;2022-10-16T23:26:53;1.4;;;1.3;;
27357;SDS011;14831;50.474;7.616;2022-10-16T23:31:53;1.4;;;1.3;;
27357;SDS011;14831;50.474;7.616;2022-10-16T23:36:53;1.4;;;1.3;;
27357;SDS011;14831;50.474;7.616;2022-10-16T23:41:53;1.4;;;1.3;;
27357;SDS011;14831;50.474;7.616;2022-10-16T23:46:53;1.4;;;1.3;;
27357;SDS011;14831;50.474;7.616;2022-10-16T23:51:53;1.3;;;1.2;;
27357;SDS011;14831;50.474;7.616;2022-10-16T23:56:53;1.3;;;1.2;;
